Current Conditions
Scattered
Clouds



Pressure
29.96 (inHG) - 1014.52 (mb)
Visibility

10.0 (miles) - 16.1 (km)
Temperature
70  °F
Temperature
55  °F
Dewpoint
60  %
 Humidity
Wind Speed
5  mph
4  kts
8  km/h
2.2  m/s
Wind Direction
N
45°
E
90°
135°
S
180°
225°
W
270°
315°
 350°

Due North
Airport Data
KMHT
Manchester-Boston Regional Airport
Metar :KMHT 070253Z 35004KT 10SM SCT060 21/13 A2996 RMK AO2 SLP156 T02110133 53023
Wed 6th July 22:53 pm
Raw Metar Info
Raw METAR is the most common format in the world for the transmission of observational weather data. It is highly standardized through the International Civil Aviation Organization (ICAO), which allows it to be understood throughout most of the world.
API Info
Data Provided by
https://www.checkwx.com/weather/KMHT

Aviation Weather providing METAR, TAF, AIRMET, SIGMET and OUTLOOK Weather Reports
© Info
CSS/SVG/PHP scripts were developed by weather34 for use in the weather34 template © 2015-2022

Guide Info provided by Metar-Wikipedia